createdAt,value
2023-04-10T00:00:46.919Z,5.82
2023-04-10T00:08:22.112Z,5.76
2023-04-10T00:15:56.496Z,5.64
2023-04-10T00:23:34.647Z,5.59
2023-04-10T00:31:08.930Z,5.49
2023-04-10T00:38:44.054Z,5.39
2023-04-10T00:46:18.417Z,5.33
2023-04-10T00:53:55.489Z,5.27
2023-04-10T01:01:29.801Z,5.21
2023-04-10T01:09:18.849Z,5.17
2023-04-10T01:16:58.371Z,5.10
2023-04-10T01:24:51.421Z,5.00
2023-04-10T01:32:29.413Z,4.92
2023-04-10T01:40:07.136Z,4.85
2023-04-10T01:47:43.530Z,4.80
2023-04-10T02:12:06.992Z,4.65
2023-04-10T02:19:44.667Z,4.52
2023-04-10T02:27:28.691Z,4.47
2023-04-10T02:35:04.646Z,4.42
2023-04-10T02:42:39.055Z,4.38
2023-04-10T02:50:14.593Z,4.34
2023-04-10T02:57:48.641Z,4.23
2023-04-10T03:05:24.032Z,4.15
2023-04-10T03:12:57.988Z,4.12
2023-04-10T03:20:33.654Z,4.09
2023-04-10T03:28:07.820Z,3.97
2023-04-10T03:43:35.070Z,3.86
2023-04-10T03:51:10.656Z,3.83
2023-04-10T03:58:44.615Z,3.80
2023-04-10T04:06:20.526Z,3.76
2023-04-10T04:13:54.710Z,3.71
2023-04-10T04:21:30.168Z,3.67
2023-04-10T04:29:04.230Z,3.66
2023-04-10T04:36:39.775Z,3.63
2023-04-10T04:44:13.620Z,3.63
2023-04-10T04:51:48.920Z,3.65
2023-04-10T04:59:22.963Z,3.64
2023-04-10T05:06:58.459Z,3.66
2023-04-10T05:14:32.479Z,3.74
2023-04-10T05:22:07.881Z,3.82
2023-04-10T05:29:41.984Z,3.93
2023-04-10T05:37:17.347Z,4.06
2023-04-10T05:44:51.448Z,4.23
2023-04-10T05:52:26.819Z,4.49
2023-04-10T06:00:00.988Z,5.03
2023-04-10T06:07:36.522Z,5.22
2023-04-10T06:15:11.194Z,5.85
2023-04-10T06:22:46.324Z,6.46
2023-04-10T06:30:20.293Z,6.69
2023-04-10T06:37:55.598Z,7.02
2023-04-10T06:45:29.527Z,7.17
2023-04-10T06:53:04.871Z,7.26
2023-04-10T07:00:38.850Z,7.28
2023-04-10T07:08:14.156Z,7.29
2023-04-10T07:15:48.171Z,7.42
2023-04-10T07:31:15.148Z,8.15
2023-04-10T07:38:50.806Z,8.56
2023-04-10T07:46:24.974Z,9.33
2023-04-10T07:54:00.556Z,9.62
2023-04-10T08:09:27.542Z,10.45
2023-04-10T08:17:01.561Z,11.55
2023-04-10T08:24:37.186Z,11.93
2023-04-10T08:32:11.104Z,11.95
2023-04-10T08:39:46.742Z,12.68
2023-04-10T08:47:22.642Z,13.47
2023-04-10T08:54:58.950Z,13.73
2023-04-10T09:02:32.960Z,14.15
2023-04-10T09:10:09.741Z,14.60
2023-04-10T09:17:57.693Z,14.67
2023-04-10T09:33:28.940Z,15.15
2023-04-10T09:41:09.579Z,15.28
2023-04-10T09:48:56.984Z,15.47
2023-04-10T09:56:35.427Z,15.85
2023-04-10T10:04:11.411Z,15.42
2023-04-10T10:11:49.353Z,15.57
2023-04-10T10:19:28.355Z,15.64
2023-04-10T10:27:05.907Z,15.33
2023-04-10T10:34:40.009Z,15.24
2023-04-10T10:42:23.210Z,15.10
2023-04-10T10:49:59.201Z,15.12
2023-04-10T10:57:52.742Z,15.09
2023-04-10T11:05:59.640Z,15.25
2023-04-10T11:13:35.863Z,15.28
2023-04-10T11:21:11.374Z,15.50
2023-04-10T11:28:46.708Z,15.49
2023-04-10T11:36:21.123Z,15.51
2023-04-10T11:51:49.336Z,15.60
2023-04-10T11:59:24.811Z,15.73
2023-04-10T12:06:59.331Z,15.92
2023-04-10T12:14:37.210Z,15.84
2023-04-10T12:22:14.072Z,15.84
2023-04-10T12:37:50.567Z,16.04
2023-04-10T12:45:43.343Z,16.12
2023-04-10T12:53:17.479Z,15.98
2023-04-10T13:00:53.571Z,16.14
2023-04-10T13:08:27.679Z,16.18
2023-04-10T13:16:03.101Z,16.24
2023-04-10T13:23:37.041Z,16.22
2023-04-10T13:31:12.439Z,16.23
2023-04-10T13:38:46.390Z,16.37
2023-04-10T13:46:22.129Z,16.48
2023-04-10T14:01:53.932Z,16.64
2023-04-10T14:09:28.444Z,16.74
2023-04-10T14:17:03.837Z,16.79
2023-04-10T14:24:37.839Z,16.69
2023-04-10T14:32:13.209Z,16.49
2023-04-10T14:39:47.211Z,16.48
2023-04-10T14:47:24.284Z,16.67
2023-04-10T14:54:58.464Z,16.64
2023-04-10T15:02:34.068Z,16.60
2023-04-10T15:10:10.734Z,16.38
2023-04-10T15:17:46.432Z,16.29
2023-04-10T15:33:13.266Z,16.08
2023-04-10T15:40:47.242Z,16.06
2023-04-10T15:48:24.713Z,15.98
2023-04-10T15:55:58.721Z,15.90
2023-04-10T16:03:34.665Z,15.91
2023-04-10T16:11:09.079Z,16.02
2023-04-10T16:18:45.265Z,16.20
2023-04-10T16:26:20.029Z,16.25
2023-04-10T16:33:55.375Z,16.08
2023-04-10T16:41:29.446Z,15.91
2023-04-10T16:49:04.962Z,15.80
2023-04-10T16:56:39.112Z,15.60
2023-04-10T17:04:16.919Z,15.48
2023-04-10T17:11:53.324Z,15.38
2023-04-10T17:19:30.774Z,15.24
2023-04-10T17:27:04.949Z,15.10
2023-04-10T17:34:40.601Z,14.95
2023-04-10T17:42:14.668Z,14.84
2023-04-10T17:49:49.925Z,14.67
2023-04-10T17:57:23.786Z,14.51
2023-04-10T18:05:00.546Z,14.32
2023-04-10T18:12:34.650Z,14.16
2023-04-10T18:20:11.233Z,14.02
2023-04-10T19:02:13.524Z,13.36
2023-04-10T19:09:48.047Z,13.23
2023-04-10T19:17:25.184Z,13.13
2023-04-10T19:25:00.333Z,13.01
2023-04-10T19:32:35.578Z,12.93
2023-04-10T19:40:10.518Z,12.86
2023-04-10T19:55:50.468Z,12.66
2023-04-10T20:03:28.078Z,12.62
2023-04-10T20:11:02.079Z,12.55
2023-04-10T20:18:38.534Z,12.49
2023-04-10T20:26:13.372Z,12.44
2023-04-10T20:33:48.970Z,12.40
2023-04-10T20:41:24.227Z,12.39
2023-04-10T20:49:01.136Z,12.38
2023-04-10T20:56:42.945Z,12.31
2023-04-10T21:04:21.033Z,12.24
2023-04-10T21:11:55.147Z,12.24
2023-04-10T21:19:30.531Z,12.16
2023-04-10T21:27:05.169Z,12.15
2023-04-10T21:34:40.987Z,12.08
2023-04-10T21:42:14.951Z,12.02
2023-04-10T21:49:50.711Z,11.96
2023-04-10T21:57:24.595Z,11.93
2023-04-10T22:04:59.750Z,11.91
2023-04-10T22:12:33.593Z,11.86
2023-04-10T22:20:09.685Z,11.81
2023-04-10T22:27:43.514Z,11.75
2023-04-10T22:35:18.737Z,11.73
2023-04-10T22:42:52.629Z,11.68
2023-04-10T22:50:27.900Z,11.66
2023-04-10T22:58:02.158Z,11.57
2023-04-10T23:05:37.976Z,11.43
2023-04-10T23:13:11.842Z,11.39
2023-04-10T23:20:47.520Z,11.34
2023-04-10T23:28:22.568Z,11.31
2023-04-10T23:35:57.619Z,11.28
2023-04-10T23:43:31.391Z,11.32
2023-04-10T23:51:07.835Z,11.23
2023-04-10T23:58:42.038Z,11.20
